Time;durP1;ratioP1;P1;durP2;ratioP2;P2;SDS_P1;SDS_P2;PMS_P1;PMS_P2;Temp;Humidity;BMP_temperature;BMP_pressure;BME280_temperature;BME280_humidity;BME280_pressure;Samples;Min_cycle;Max_cycle;Signal;HPM_P1;HPM_P2
2023/12/21 00:00:16;;;;;;;17.23;10.07;;;;;;;8.01;100.00;100838.75;2076319;28;20243;-70
2023/12/21 00:01:16;;;;;;;18.90;10.50;;;;;;;7.69;100.00;100785.09;2075780;28;20724;-72
2023/12/21 00:02:17;;;;;;;19.17;9.40;;;;;;;6.46;100.00;100578.72;2085043;28;20754;-72
2023/12/21 00:03:17;;;;;;;15.97;9.63;;;;;;;8.07;100.00;100825.28;2077037;28;20770;-71
2023/12/21 00:04:18;;;;;;;16.97;10.03;;;;;;;7.77;100.00;100786.56;2076468;28;20785;-72
2023/12/21 00:05:18;;;;;;;18.67;10.23;;;;;;;8.04;100.00;100826.13;2077073;28;20686;-71
2023/12/21 00:06:19;;;;;;;17.50;9.37;;;;;;;7.50;100.00;100745.06;2084905;28;20177;-70
2023/12/21 00:07:19;;;;;;;13.47;8.63;;;;;;;7.81;100.00;100831.47;2085892;28;20184;-71
2023/12/21 00:08:20;;;;;;;15.80;9.57;;;;;;;6.78;100.00;100628.78;2076745;28;20207;-72
2023/12/21 00:09:20;;;;;;;15.73;9.77;;;;;;;7.51;100.00;100757.66;2076957;28;20219;-71
2023/12/21 00:10:21;;;;;;;18.53;9.77;;;;;;;7.81;100.00;100810.19;2077761;28;20203;-73
2023/12/21 00:11:22;;;;;;;18.23;10.27;;;;;;;7.62;100.00;100777.66;2076862;28;20275;-71
2023/12/21 00:12:23;;;;;;;16.73;8.93;;;;;;;6.91;100.00;100680.22;2076900;28;20217;-71
2023/12/21 00:13:26;;;;;;;14.53;9.20;;;;;;;7.49;100.00;100760.03;2076859;28;20429;-70
2023/12/21 00:14:30;;;;;;;18.60;9.97;;;;;;;6.26;100.00;100583.97;2085023;28;20566;-70
2023/12/21 00:15:30;;;;;;;15.50;8.77;;;;;;;7.88;100.00;100834.13;2084879;28;20427;-71
2023/12/21 00:16:30;;;;;;;16.27;9.27;;;;;;;7.59;100.00;100786.72;2085673;28;20531;-71
2023/12/21 00:17:31;;;;;;;14.17;7.63;;;;;;;7.40;100.00;100773.53;2084958;28;20199;-71
2023/12/21 00:18:32;;;;;;;13.53;8.80;;;;;;;7.67;100.00;100818.59;2076735;28;20274;-72
2023/12/21 00:19:32;;;;;;;15.67;9.23;;;;;;;7.82;100.00;100839.34;2076967;28;20235;-70
2023/12/21 00:20:33;;;;;;;13.53;8.87;;;;;;;7.33;100.00;100762.53;2079545;28;20215;-72
2023/12/21 00:21:33;;;;;;;15.33;8.77;;;;;;;6.96;100.00;100690.81;2076741;28;20209;-70
2023/12/21 00:22:34;;;;;;;14.50;9.40;;;;;;;7.24;100.00;100725.63;2084871;28;20242;-70
2023/12/21 00:23:35;;;;;;;16.03;9.60;;;;;;;7.55;100.00;100793.47;2083748;28;20266;-71
2023/12/21 00:24:35;;;;;;;16.83;10.07;;;;;;;7.26;100.00;100713.00;2077070;28;20201;-70
2023/12/21 00:25:35;;;;;;;15.87;9.13;;;;;;;7.31;100.00;100753.91;2085230;28;20198;-71
2023/12/21 00:26:36;;;;;;;14.60;8.83;;;;;;;6.76;100.00;100650.47;2085363;28;20291;-71
2023/12/21 00:27:36;;;;;;;14.93;8.87;;;;;;;7.91;100.00;100822.28;2077486;28;20204;-70
2023/12/21 00:28:37;;;;;;;15.10;9.20;;;;;;;7.87;100.00;100838.91;2076412;28;20193;-72
2023/12/21 00:29:37;;;;;;;16.47;9.27;;;;;;;7.54;100.00;100778.13;2076910;28;20509;-71
2023/12/21 00:30:38;;;;;;;14.50;8.30;;;;;;;7.33;100.00;100761.78;2076960;28;20180;-71
2023/12/21 00:31:39;;;;;;;15.30;9.00;;;;;;;6.97;100.00;100699.88;2077235;28;20252;-71
2023/12/21 00:32:39;;;;;;;17.97;9.90;;;;;;;7.74;100.00;100829.53;2075965;28;20216;-71
2023/12/21 00:33:40;;;;;;;17.37;10.07;;;;;;;7.25;100.00;100765.78;2076840;28;20319;-71
2023/12/21 00:34:42;;;;;;;15.17;8.93;;;;;;;7.11;100.00;100733.59;2076156;28;20278;-71
2023/12/21 00:35:42;;;;;;;13.97;9.03;;;;;;;7.64;100.00;100805.59;2084077;28;20187;-69
2023/12/21 00:36:45;;;;;;;16.40;8.77;;;;;;;6.87;100.00;100690.50;2077029;28;20492;-70
2023/12/21 00:37:45;;;;;;;15.97;9.73;;;;;;;6.96;100.00;100723.09;2078125;28;20214;-71
2023/12/21 00:38:46;;;;;;;13.20;8.73;;;;;;;6.79;100.00;100674.44;2077503;28;20465;-72
2023/12/21 00:39:47;;;;;;;18.17;10.10;;;;;;;7.30;100.00;100770.84;2078197;28;20189;-71
2023/12/21 00:40:47;;;;;;;16.40;9.60;;;;;;;7.81;100.00;100837.78;2078261;28;20191;-71
2023/12/21 00:41:48;;;;;;;14.83;9.10;;;;;;;7.52;100.00;100795.06;2077368;28;20184;-70
2023/12/21 00:42:48;;;;;;;14.93;8.83;;;;;;;7.03;100.00;100720.28;2077524;28;20194;-70
2023/12/21 00:43:49;;;;;;;14.67;9.37;;;;;;;7.74;100.00;100829.53;2076519;28;20192;-70
2023/12/21 00:44:49;;;;;;;17.37;9.90;;;;;;;7.40;100.00;100783.75;2077469;28;20195;-72
2023/12/21 00:45:50;;;;;;;17.07;9.80;;;;;;;7.84;100.00;100844.44;2077703;28;20192;-72
2023/12/21 00:46:50;;;;;;;15.43;9.60;;;;;;;5.75;100.00;100528.09;2076757;28;20362;-70
2023/12/21 00:47:51;;;;;;;12.90;8.73;;;;;;;7.85;100.00;100846.00;2077776;28;20184;-69
2023/12/21 00:48:51;;;;;;;14.30;8.80;;;;;;;7.61;100.00;100811.94;2078127;28;20223;-70
2023/12/21 00:49:52;;;;;;;15.70;8.90;;;;;;;7.33;100.00;100770.03;2078060;28;20652;-72
2023/12/21 00:50:52;;;;;;;14.47;8.87;;;;;;;4.62;100.00;100343.06;2077676;28;20646;-71
2023/12/21 00:51:53;;;;;;;15.90;8.90;;;;;;;6.81;100.00;100716.13;2077485;28;20185;-70
2023/12/21 00:52:53;;;;;;;14.93;8.53;;;;;;;7.89;100.00;100841.25;2077815;28;20247;-72
2023/12/21 00:53:54;;;;;;;13.00;7.57;;;;;;;7.92;100.00;100845.94;2077298;28;20201;-72
2023/12/21 00:54:54;;;;;;;12.60;8.17;;;;;;;7.85;100.00;100826.69;2077123;28;20231;-72
2023/12/21 00:55:55;;;;;;;12.87;8.30;;;;;;;7.94;100.00;100846.31;2077060;28;20259;-70
2023/12/21 00:56:55;;;;;;;12.73;8.10;;;;;;;6.11;100.00;100546.72;2078551;28;20181;-72
2023/12/21 00:57:56;;;;;;;14.00;7.80;;;;;;;7.06;100.00;100703.72;2077742;28;20310;-69
2023/12/21 00:58:59;;;;;;;12.67;7.77;;;;;;;7.28;100.00;100740.94;2077492;28;20422;-70
2023/12/21 00:59:59;;;;;;;15.53;7.07;;;;;;;6.86;100.00;100663.34;2077606;28;20190;-70
2023/12/21 01:01:00;;;;;;;11.50;7.47;;;;;;;7.08;100.00;100701.34;2077033;28;20438;-71
2023/12/21 01:02:02;;;;;;;14.03;7.80;;;;;;;7.23;100.00;100741.38;2075955;28;20205;-72
2023/12/21 01:03:03;;;;;;;14.83;8.10;;;;;;;7.78;100.00;100799.16;2077636;28;20561;-72
2023/12/21 01:04:04;;;;;;;11.57;7.47;;;;;;;7.90;100.00;100831.78;2077790;28;20446;-71
2023/12/21 01:05:05;;;;;;;13.33;7.50;;;;;;;7.98;100.00;100822.22;2078407;28;20214;-72
2023/12/21 01:06:05;;;;;;;12.47;7.47;;;;;;;8.03;100.00;100832.81;2077672;28;20447;-71
2023/12/21 01:07:06;;;;;;;15.33;7.93;;;;;;;7.30;100.00;100718.47;2077516;28;20443;-71
2023/12/21 01:08:07;;;;;;;11.87;5.80;;;;;;;7.48;100.00;100738.41;2077475;28;20204;-72
2023/12/21 01:09:08;;;;;;;11.97;6.87;;;;;;;7.08;100.00;100673.00;2076333;28;20290;-70
2023/12/21 01:10:09;;;;;;;13.30;7.27;;;;;;;7.95;100.00;100812.00;2076609;28;20553;-71
2023/12/21 01:11:10;;;;;;;12.50;6.67;;;;;;;7.31;100.00;100709.81;2084621;28;20504;-70
2023/12/21 01:12:11;;;;;;;10.10;6.93;;;;;;;7.76;100.00;100816.13;2083960;28;20227;-70
2023/12/21 01:13:12;;;;;;;10.97;5.80;;;;;;;7.16;100.00;100722.13;2077135;28;20448;-70
2023/12/21 01:14:13;;;;;;;12.37;7.37;;;;;;;7.33;100.00;100717.66;2077818;28;20188;-72
2023/12/21 01:15:13;;;;;;;11.83;6.77;;;;;;;6.81;100.00;100658.28;2077819;28;20576;-72
2023/12/21 01:16:16;;;;;;;12.80;7.00;;;;;;;7.25;100.00;100697.66;2076415;28;20462;-70
2023/12/21 01:17:16;;;;;;;12.93;7.40;;;;;;;7.53;100.00;100751.75;2068741;28;20200;-70
2023/12/21 01:18:17;;;;;;;12.37;6.87;;;;;;;7.40;100.00;100721.16;2076641;28;20951;-72
2023/12/21 01:19:17;;;;;;;11.10;6.83;;;;;;;7.10;100.00;100689.91;2077763;28;20199;-70
2023/12/21 01:20:18;;;;;;;10.53;6.33;;;;;;;7.28;100.00;100738.16;2077555;28;20181;-72
2023/12/21 01:21:18;;;;;;;10.33;6.03;;;;;;;7.64;100.00;100774.50;2076763;28;20264;-72
2023/12/21 01:22:19;;;;;;;11.30;6.53;;;;;;;7.33;100.00;100740.50;2077561;28;20184;-71
2023/12/21 01:23:20;;;;;;;9.70;5.80;;;;;;;7.57;100.00;100769.03;2076188;28;20194;-71
2023/12/21 01:24:20;;;;;;;9.93;6.03;;;;;;;7.05;100.00;100693.09;2068485;28;20194;-71
2023/12/21 01:25:21;;;;;;;8.83;5.73;;;;;;;6.76;100.00;100667.75;2067954;28;20198;-71
2023/12/21 01:26:21;;;;;;;9.70;5.67;;;;;;;6.61;100.00;100638.75;2068217;28;20204;-71
2023/12/21 01:27:22;;;;;;;9.33;5.97;;;;;;;6.72;100.00;100660.72;2076376;28;20193;-71
2023/12/21 01:28:22;;;;;;;9.37;5.87;;;;;;;7.30;100.00;100768.88;2084360;28;20273;-70
2023/12/21 01:29:23;;;;;;;8.87;5.07;;;;;;;7.28;100.00;100770.47;2077128;28;20602;-72
2023/12/21 01:30:23;;;;;;;9.00;5.00;;;;;;;7.25;100.00;100772.06;2077722;28;20184;-70
2023/12/21 01:31:24;;;;;;;9.73;5.70;;;;;;;6.91;100.00;100726.25;2077210;28;20193;-70
2023/12/21 01:32:24;;;;;;;11.30;5.80;;;;;;;6.23;100.00;100634.31;2076638;28;20760;-70
2023/12/21 01:33:25;;;;;;;12.57;5.70;;;;;;;6.10;100.00;100608.44;2076886;28;20196;-70
2023/12/21 01:34:25;;;;;;;10.77;5.47;;;;;;;7.27;100.00;100783.47;2077467;28;20193;-72
2023/12/21 01:35:26;;;;;;;12.90;5.63;;;;;;;7.42;100.00;100817.22;2077506;28;20200;-71
2023/12/21 01:36:28;;;;;;;8.73;5.27;;;;;;;6.66;100.00;100707.16;2076391;28;20189;-71
2023/12/21 01:37:28;;;;;;;9.20;5.28;;;;;;;5.96;100.00;100583.78;2076971;28;20192;-72
2023/12/21 01:38:29;;;;;;;8.90;5.20;;;;;;;7.38;100.00;100802.69;2076757;28;20176;-71
2023/12/21 01:39:29;;;;;;;7.77;4.73;;;;;;;7.28;100.00;100801.56;2077191;28;20247;-70
2023/12/21 01:40:30;;;;;;;7.73;4.80;;;;;;;6.54;100.00;100723.38;2077039;28;20186;-70
2023/12/21 01:41:30;;;;;;;9.73;5.30;;;;;;;7.00;100.00;100751.41;2076569;28;20224;-72
2023/12/21 01:42:31;;;;;;;9.47;5.97;;;;;;;7.29;100.00;100811.41;2077346;28;20198;-70
2023/12/21 01:43:31;;;;;;;8.70;4.80;;;;;;;6.91;100.00;100757.38;2076184;28;20186;-72
2023/12/21 01:44:32;;;;;;;9.87;5.37;;;;;;;6.82;100.00;100739.72;2076383;28;20573;-70
2023/12/21 01:45:32;;;;;;;9.03;5.17;;;;;;;6.62;100.00;100700.91;2076807;28;20285;-72
2023/12/21 01:46:34;;;;;;;9.77;5.00;;;;;;;6.86;100.00;100754.25;2076905;28;20182;-71
2023/12/21 01:47:35;;;;;;;8.75;4.80;;;;;;;7.23;100.00;100785.47;2077062;28;20219;-71
2023/12/21 01:48:36;;;;;;;8.45;4.03;;;;;;;6.46;100.00;100714.38;2076050;28;20202;-71
2023/12/21 01:49:38;;;;;;;8.38;4.57;;;;;;;6.57;100.00;100719.84;2077608;28;20220;-72
2023/12/21 01:50:38;;;;;;;8.87;4.90;;;;;;;6.13;100.00;100653.63;2076507;28;20185;-70
2023/12/21 01:51:40;;;;;;;8.03;4.63;;;;;;;7.04;100.00;100801.75;2076477;28;21041;-71
2023/12/21 01:52:42;;;;;;;8.07;4.07;;;;;;;6.68;100.00;100739.81;2076157;28;20307;-69
2023/12/21 01:53:44;;;;;;;8.35;4.57;;;;;;;6.83;100.00;100755.84;2076703;28;20209;-70
2023/12/21 01:54:45;;;;;;;8.65;4.43;;;;;;;6.46;100.00;100703.38;2077274;28;20273;-71
2023/12/21 01:55:46;;;;;;;7.90;4.90;;;;;;;6.86;100.00;100790.06;2077254;28;20189;-70
2023/12/21 01:56:46;;;;;;;6.77;3.70;;;;;;;6.73;100.00;100777.94;2077845;28;20179;-70
2023/12/21 01:57:47;;;;;;;6.50;4.30;;;;;;;6.44;100.00;100718.72;2077065;28;20544;-71
2023/12/21 01:58:49;;;;;;;7.77;4.80;;;;;;;6.59;100.00;100720.19;2076447;28;20191;-70
2023/12/21 01:59:51;;;;;;;7.78;4.55;;;;;;;6.44;100.00;100725.00;2075973;28;20701;-70
2023/12/21 02:00:54;;;;;;;9.20;5.18;;;;;;;6.95;100.00;100790.41;2076161;28;20191;-70
2023/12/21 02:01:55;;;;;;;8.45;5.25;;;;;;;6.26;100.00;100698.78;2075390;28;20808;-71
2023/12/21 02:02:56;;;;;;;7.30;4.20;;;;;;;6.50;100.00;100728.13;2075219;28;21093;-71
2023/12/21 02:03:56;;;;;;;9.07;4.87;;;;;;;6.16;100.00;100694.09;2076381;28;20235;-70
2023/12/21 02:04:57;;;;;;;9.43;5.87;;;;;;;6.70;100.00;100776.00;2076233;28;20429;-71
2023/12/21 02:05:59;;;;;;;10.43;5.63;;;;;;;6.26;100.00;100707.78;2078916;28;20191;-72
2023/12/21 02:07:00;;;;;;;7.57;4.23;;;;;;;5.54;100.00;100605.94;2076409;28;20193;-71
2023/12/21 02:08:01;;;;;;;11.47;6.40;;;;;;;5.86;100.00;100649.84;2076879;28;20979;-70
2023/12/21 02:09:01;;;;;;;7.63;4.73;;;;;;;5.95;100.00;100677.69;2076261;28;20193;-72
2023/12/21 02:10:02;;;;;;;9.53;4.13;;;;;;;5.93;100.00;100666.28;2076402;28;20829;-70
2023/12/21 02:11:07;;;;;;;9.53;5.97;;;;;;;6.88;100.00;100796.72;2076085;28;20682;-70
2023/12/21 02:12:08;;;;;;;9.57;5.78;;;;;;;6.41;100.00;100739.56;2076001;28;20187;-71
2023/12/21 02:13:08;;;;;;;9.13;4.83;;;;;;;6.19;100.00;100702.34;2075242;28;20181;-72
2023/12/21 02:14:09;;;;;;;10.33;5.90;;;;;;;6.57;100.00;100780.41;2076860;28;20191;-72
2023/12/21 02:15:10;;;;;;;9.37;5.80;;;;;;;6.69;100.00;100804.72;2076996;28;20186;-71
2023/12/21 02:16:19;;;;;;;10.27;6.00;;;;;;;6.63;100.00;100800.81;2076988;28;20222;-71
2023/12/21 02:17:21;;;;;;;8.07;4.50;;;;;;;5.81;100.00;100667.53;2076873;28;20269;-70
2023/12/21 02:18:22;;;;;;;10.00;5.55;;;;;;;5.54;100.00;100654.66;2077230;28;20197;-71
2023/12/21 02:19:23;;;;;;;8.97;5.70;;;;;;;6.64;100.00;100807.88;2077147;28;20202;-70
2023/12/21 02:20:25;;;;;;;10.13;5.93;;;;;;;6.63;100.00;100796.09;2076350;28;20182;-70
2023/12/21 02:21:28;;;;;;;9.93;5.23;;;;;;;6.32;100.00;100743.94;2076124;28;20452;-70
2023/12/21 02:22:32;;;;;;;8.68;4.75;;;;;;;6.12;100.00;100754.66;2077356;28;20422;-71
2023/12/21 02:23:37;;;;;;;9.20;5.80;;;;;;;6.45;100.00;100787.13;2076536;28;20224;-70
2023/12/21 02:24:37;;;;;;;7.70;5.13;;;;;;;6.63;100.00;100812.63;2077139;28;21556;-71
2023/12/21 02:25:38;;;;;;;5.80;3.60;;;;;;;5.51;100.00;100647.19;2077806;28;20190;-71
2023/12/21 02:26:38;;;;;;;5.97;3.83;;;;;;;6.68;100.00;100827.94;2079203;28;20179;-71
2023/12/21 02:27:39;;;;;;;9.90;5.00;;;;;;;5.78;100.00;100687.56;2078177;28;20198;-71
2023/12/21 02:28:41;;;;;;;6.97;3.77;;;;;;;5.94;100.00;100722.91;2078656;28;20653;-70
2023/12/21 02:29:41;;;;;;;6.50;3.77;;;;;;;6.36;100.00;100770.25;2079713;28;20271;-71
2023/12/21 02:30:42;;;;;;;7.07;4.00;;;;;;;5.80;100.00;100685.22;2078612;28;20442;-70
2023/12/21 02:31:42;;;;;;;7.03;3.67;;;;;;;6.12;100.00;100751.09;2076985;28;20559;-70
2023/12/21 02:32:43;;;;;;;8.20;4.40;;;;;;;6.07;100.00;100737.75;2077215;28;20603;-72
2023/12/21 02:33:43;;;;;;;5.27;3.17;;;;;;;5.32;100.00;100601.72;2077778;28;20191;-71
2023/12/21 02:34:44;;;;;;;8.70;5.17;;;;;;;6.19;100.00;100726.31;2078897;28;20186;-70
2023/12/21 02:35:44;;;;;;;7.97;4.40;;;;;;;6.26;100.00;100768.34;2077749;28;20219;-71
2023/12/21 02:36:45;;;;;;;7.67;4.40;;;;;;;5.56;100.00;100677.00;2078573;28;20575;-71
2023/12/21 02:37:45;;;;;;;8.80;4.40;;;;;;;5.69;100.00;100656.94;2079590;28;20192;-71
2023/12/21 02:38:46;;;;;;;8.83;4.60;;;;;;;6.65;100.00;100807.50;2078434;28;20199;-70
2023/12/21 02:39:46;;;;;;;7.77;3.60;;;;;;;6.76;100.00;100812.97;2077527;28;20228;-70
2023/12/21 02:40:47;;;;;;;8.57;4.37;;;;;;;6.28;100.00;100735.72;2077813;28;20184;-70
2023/12/21 02:41:47;;;;;;;7.47;3.53;;;;;;;6.10;100.00;100704.72;2085430;28;20219;-70
2023/12/21 02:42:48;;;;;;;8.87;4.50;;;;;;;6.32;100.00;100743.94;2086358;28;20286;-70
2023/12/21 02:43:48;;;;;;;7.43;4.07;;;;;;;6.37;100.00;100747.09;2078280;28;20672;-70
2023/12/21 02:44:49;;;;;;;8.13;4.33;;;;;;;6.59;100.00;100776.06;2078715;28;20283;-71
2023/12/21 02:45:49;;;;;;;6.17;3.53;;;;;;;6.21;100.00;100732.97;2078331;28;21089;-71
2023/12/21 02:46:50;;;;;;;7.03;4.30;;;;;;;6.77;100.00;100809.00;2077272;28;20984;-70
2023/12/21 02:47:50;;;;;;;7.60;3.73;;;;;;;6.14;100.00;100716.50;2078309;28;20258;-70
2023/12/21 02:48:51;;;;;;;10.83;4.20;;;;;;;6.33;100.00;100734.50;2078187;28;20194;-71
2023/12/21 02:49:52;;;;;;;5.18;2.95;;;;;;;5.88;100.00;100684.00;2078142;28;20657;-71
2023/12/21 02:50:54;;;;;;;7.17;4.23;;;;;;;6.78;100.00;100800.34;2078597;28;20721;-71
2023/12/21 02:51:55;;;;;;;7.47;4.43;;;;;;;6.14;100.00;100713.75;2077808;28;20661;-70
2023/12/21 02:52:55;;;;;;;8.30;4.37;;;;;;;6.06;100.00;100692.19;2078359;28;21010;-70
2023/12/21 02:53:56;;;;;;;8.00;3.90;;;;;;;6.33;100.00;100754.56;2078046;28;20264;-70
2023/12/21 02:54:56;;;;;;;6.97;3.77;;;;;;;6.66;100.00;100805.53;2069494;28;20659;-71
2023/12/21 02:55:57;;;;;;;9.07;4.87;;;;;;;5.68;100.00;100643.59;2077981;28;20252;-71
2023/12/21 02:56:57;;;;;;;9.27;4.50;;;;;;;5.85;100.00;100662.78;2078897;28;20202;-71
2023/12/21 02:57:58;;;;;;;6.97;4.03;;;;;;;6.02;100.00;100705.16;2077630;28;20219;-71
2023/12/21 02:58:58;;;;;;;6.23;3.13;;;;;;;6.47;100.00;100765.50;2078281;28;20406;-70
2023/12/21 02:59:59;;;;;;;10.33;5.27;;;;;;;6.74;100.00;100851.91;2079444;28;20185;-71
2023/12/21 03:01:01;;;;;;;12.43;4.33;;;;;;;6.63;100.00;100820.09;2079018;28;20207;-71
2023/12/21 03:02:02;;;;;;;7.78;4.15;;;;;;;6.69;100.00;100826.75;2078717;28;20214;-71
2023/12/21 03:03:02;;;;;;;7.50;4.10;;;;;;;6.67;100.00;100826.38;2078518;28;20189;-72
2023/12/21 03:04:03;;;;;;;9.20;4.40;;;;;;;6.17;100.00;100740.50;2078384;28;20668;-70
2023/12/21 03:05:04;;;;;;;9.80;4.20;;;;;;;6.71;100.00;100829.91;2079239;28;20192;-72
2023/12/21 03:06:05;;;;;;;8.53;5.17;;;;;;;6.76;100.00;100823.97;2078582;28;20431;-71
2023/12/21 03:07:05;;;;;;;6.77;3.73;;;;;;;6.75;100.00;100836.94;2078618;28;20433;-71
2023/12/21 03:08:06;;;;;;;7.70;4.17;;;;;;;6.38;100.00;100773.41;2078683;28;20222;-71
2023/12/21 03:09:07;;;;;;;8.73;4.37;;;;;;;6.30;100.00;100752.59;2077928;28;20208;-71
2023/12/21 03:10:08;;;;;;;8.43;4.80;;;;;;;6.54;100.00;100798.50;2078679;28;20220;-70
2023/12/21 03:11:08;;;;;;;7.32;4.35;;;;;;;5.83;100.00;100689.91;2078958;28;20256;-71
2023/12/21 03:12:09;;;;;;;8.10;4.53;;;;;;;6.25;100.00;100747.50;2077379;28;20281;-71
2023/12/21 03:13:09;;;;;;;8.83;4.57;;;;;;;6.24;100.00;100742.41;2078666;28;20231;-71
2023/12/21 03:14:10;;;;;;;7.90;3.87;;;;;;;6.44;100.00;100771.81;2078184;28;20266;-70
2023/12/21 03:15:10;;;;;;;9.60;5.20;;;;;;;6.21;100.00;100752.25;2077838;28;20189;-70
2023/12/21 03:16:12;;;;;;;10.13;4.93;;;;;;;5.85;100.00;100701.28;2079042;28;20194;-70
2023/12/21 03:17:13;;;;;;;10.15;4.57;;;;;;;6.17;100.00;100775.47;2078035;28;20255;-71
2023/12/21 03:18:13;;;;;;;10.93;4.90;;;;;;;6.59;100.00;100833.88;2077542;28;20217;-71
2023/12/21 03:19:14;;;;;;;7.67;4.37;;;;;;;6.15;100.00;100748.34;2077935;28;20202;-73
2023/12/21 03:20:15;;;;;;;7.20;4.20;;;;;;;6.31;100.00;100764.41;2077903;28;20200;-71
2023/12/21 03:21:15;;;;;;;7.73;4.70;;;;;;;6.46;100.00;100796.97;2077197;28;20187;-71
2023/12/21 03:22:16;;;;;;;10.70;5.13;;;;;;;6.00;100.00;100726.81;2077883;28;20202;-70
2023/12/21 03:23:16;;;;;;;12.67;4.70;;;;;;;6.58;100.00;100823.25;2078748;28;20199;-72
2023/12/21 03:24:17;;;;;;;8.20;4.67;;;;;;;6.56;100.00;100790.63;2078262;28;20196;-70
2023/12/21 03:25:17;;;;;;;13.27;5.40;;;;;;;6.27;100.00;100747.91;2078595;28;20204;-70
2023/12/21 03:26:18;;;;;;;8.20;4.63;;;;;;;6.88;100.00;100854.56;2078066;28;20196;-70
2023/12/21 03:27:19;;;;;;;7.83;4.80;;;;;;;6.60;100.00;100796.09;2077501;28;20253;-70
2023/12/21 03:28:20;;;;;;;13.30;6.00;;;;;;;5.98;100.00;100721.69;2078092;28;20245;-70
2023/12/21 03:29:20;;;;;;;8.52;4.38;;;;;;;6.30;100.00;100776.59;2078014;28;20204;-70
2023/12/21 03:30:21;;;;;;;7.13;4.37;;;;;;;6.90;100.00;100845.91;2077511;28;20215;-70
2023/12/21 03:31:21;;;;;;;8.23;4.30;;;;;;;6.12;100.00;100742.84;2076544;28;20756;-71
2023/12/21 03:32:22;;;;;;;7.93;4.10;;;;;;;5.70;100.00;100671.47;2077420;28;20274;-70
2023/12/21 03:33:22;;;;;;;7.53;4.57;;;;;;;6.10;100.00;100743.25;2078643;28;20630;-71
2023/12/21 03:34:23;;;;;;;8.03;4.50;;;;;;;6.40;100.00;100808.81;2077838;28;20232;-71
2023/12/21 03:35:24;;;;;;;7.57;4.57;;;;;;;6.09;100.00;100755.44;2077683;28;20230;-70
2023/12/21 03:36:26;;;;;;;6.73;4.03;;;;;;;6.58;100.00;100823.25;2077800;28;20295;-71
2023/12/21 03:37:28;;;;;;;9.03;4.80;;;;;;;6.83;100.00;100857.75;2077774;28;20209;-71
2023/12/21 03:38:29;;;;;;;8.75;4.50;;;;;;;6.58;100.00;100824.06;2077857;28;20446;-71
2023/12/21 03:39:29;;;;;;;8.00;4.30;;;;;;;6.11;100.00;100788.06;2077503;28;20325;-70
2023/12/21 03:40:30;;;;;;;7.43;4.40;;;;;;;6.28;100.00;100774.25;2086335;28;20188;-70
2023/12/21 03:41:30;;;;;;;6.30;3.63;;;;;;;6.46;100.00;100823.72;2086294;28;20185;-71
2023/12/21 03:42:31;;;;;;;6.43;3.80;;;;;;;6.52;100.00;100822.88;2078868;28;20273;-71
2023/12/21 03:43:31;;;;;;;7.07;4.33;;;;;;;6.45;100.00;100805.63;2077656;28;20202;-72
2023/12/21 03:44:32;;;;;;;5.40;3.47;;;;;;;6.63;100.00;100839.38;2077946;28;20196;-71
2023/12/21 03:45:35;;;;;;;9.50;4.27;;;;;;;6.55;100.00;100810.28;2077710;28;20196;-72
2023/12/21 03:46:35;;;;;;;6.72;3.92;;;;;;;6.46;100.00;100818.97;2077166;28;20203;-70
2023/12/21 03:47:36;;;;;;;8.27;4.13;;;;;;;6.26;100.00;100795.84;2077542;28;20205;-71
2023/12/21 03:48:36;;;;;;;9.73;4.67;;;;;;;6.36;100.00;100814.31;2076956;28;20203;-72
2023/12/21 03:49:37;;;;;;;6.90;4.33;;;;;;;5.44;100.00;100658.22;2078160;28;20282;-72
2023/12/21 03:50:37;;;;;;;6.63;4.07;;;;;;;6.38;100.00;100795.44;2078018;28;20682;-71
2023/12/21 03:51:38;;;;;;;9.17;4.20;;;;;;;6.26;100.00;100787.59;2076948;28;20229;-72
2023/12/21 03:52:38;;;;;;;8.70;4.57;;;;;;;6.25;100.00;100788.03;2078327;28;20212;-73
2023/12/21 03:53:39;;;;;;;7.03;3.63;;;;;;;6.14;100.00;100766.03;2077878;28;20211;-71
2023/12/21 03:54:39;;;;;;;5.90;3.97;;;;;;;5.47;100.00;100665.66;2077776;28;20198;-70
2023/12/21 03:55:40;;;;;;;9.73;4.50;;;;;;;6.85;100.00;100879.41;2078281;28;20265;-70
2023/12/21 03:56:40;;;;;;;8.83;4.30;;;;;;;6.35;100.00;100796.22;2078242;28;20552;-71
2023/12/21 03:57:41;;;;;;;6.83;3.60;;;;;;;6.44;100.00;100807.59;2078578;28;20209;-72
2023/12/21 03:58:42;;;;;;;9.93;4.67;;;;;;;5.83;100.00;100717.41;2078018;28;20577;-72
2023/12/21 03:59:42;;;;;;;9.17;4.77;;;;;;;6.25;100.00;100771.50;2079740;28;20220;-69
2023/12/21 04:00:43;;;;;;;7.53;4.53;;;;;;;6.35;100.00;100801.72;2079600;28;20281;-70
2023/12/21 04:01:43;;;;;;;8.93;3.80;;;;;;;6.26;100.00;100795.09;2078660;28;20194;-70
2023/12/21 04:02:44;;;;;;;11.33;4.90;;;;;;;6.49;100.00;100850.44;2078258;28;20202;-70
2023/12/21 04:03:44;;;;;;;9.02;3.90;;;;;;;6.71;100.00;100885.00;2078926;28;20563;-70
2023/12/21 04:04:45;;;;;;;7.47;3.93;;;;;;;6.12;100.00;100803.38;2079977;28;20249;-70
2023/12/21 04:05:46;;;;;;;8.67;4.00;;;;;;;6.82;100.00;100891.22;2079468;28;20182;-70
2023/12/21 04:06:46;;;;;;;8.83;4.77;;;;;;;6.03;100.00;100762.53;2079456;28;20376;-69
2023/12/21 04:07:47;;;;;;;7.13;4.10;;;;;;;5.43;100.00;100662.16;2070957;28;20199;-70
2023/12/21 04:08:47;;;;;;;6.53;3.57;;;;;;;5.96;100.00;100759.81;2078731;28;20807;-70
2023/12/21 04:09:48;;;;;;;8.13;4.33;;;;;;;6.60;100.00;100856.69;2079851;28;20199;-70
2023/12/21 04:10:48;;;;;;;8.30;4.40;;;;;;;5.79;100.00;100733.09;2079268;28;20295;-69
2023/12/21 04:11:49;;;;;;;8.47;4.20;;;;;;;6.88;100.00;100898.66;2078629;28;20204;-71
2023/12/21 04:12:49;;;;;;;7.50;3.37;;;;;;;5.86;100.00;100730.38;2078752;28;20237;-71
2023/12/21 04:13:50;;;;;;;7.47;4.13;;;;;;;6.92;100.00;100895.91;2079034;28;20195;-71
2023/12/21 04:14:50;;;;;;;8.43;4.17;;;;;;;6.55;100.00;100846.06;2080428;28;20179;-70
2023/12/21 04:15:51;;;;;;;6.83;4.03;;;;;;;6.65;100.00;100865.31;2080152;28;20194;-71
2023/12/21 04:16:51;;;;;;;6.13;3.60;;;;;;;6.29;100.00;100802.53;2079866;28;20194;-71
2023/12/21 04:17:52;;;;;;;8.40;3.90;;;;;;;6.40;100.00;100811.56;2079857;28;20195;-72
2023/12/21 04:18:52;;;;;;;10.43;4.90;;;;;;;6.84;100.00;100878.63;2078611;28;20619;-70
2023/12/21 04:19:53;;;;;;;6.77;4.00;;;;;;;6.00;100.00;100749.56;2078897;28;20195;-70
2023/12/21 04:20:53;;;;;;;8.77;4.13;;;;;;;6.61;100.00;100842.53;2079312;28;20267;-70
2023/12/21 04:21:54;;;;;;;6.73;4.00;;;;;;;6.95;100.00;100895.88;2078398;28;20192;-71
2023/12/21 04:22:54;;;;;;;7.60;4.23;;;;;;;6.56;100.00;100837.44;2079419;28;20188;-71
2023/12/21 04:23:55;;;;;;;6.43;3.77;;;;;;;6.81;100.00;100853.84;2079464;28;20215;-70
2023/12/21 04:24:55;;;;;;;9.00;4.43;;;;;;;6.43;100.00;100819.78;2079532;28;20200;-70
2023/12/21 04:25:56;;;;;;;7.70;3.87;;;;;;;6.18;100.00;100758.56;2079921;28;20196;-70
2023/12/21 04:26:56;;;;;;;7.50;4.03;;;;;;;6.87;100.00;100896.31;2079080;28;20230;-70
2023/12/21 04:27:57;;;;;;;6.63;3.47;;;;;;;6.34;100.00;100800.16;2079069;28;20192;-70
2023/12/21 04:28:57;;;;;;;7.97;3.90;;;;;;;6.50;100.00;100799.69;2078415;28;20280;-71
2023/12/21 04:29:58;;;;;;;5.80;3.53;;;;;;;5.38;100.00;100638.59;2078927;28;20187;-71
2023/12/21 04:30:59;;;;;;;5.50;3.10;;;;;;;5.63;100.00;100675.03;2079175;28;20189;-71
2023/12/21 04:32:00;;;;;;;8.97;3.70;;;;;;;6.98;100.00;100875.00;2079172;28;20190;-71
2023/12/21 04:33:00;;;;;;;6.07;3.30;;;;;;;6.55;100.00;100816.59;2079656;28;20206;-70
2023/12/21 04:34:01;;;;;;;5.23;3.23;;;;;;;7.01;100.00;100880.50;2079807;28;20662;-71
2023/12/21 04:35:01;;;;;;;6.97;4.23;;;;;;;7.06;100.00;100895.81;2079869;28;20191;-71
2023/12/21 04:36:03;;;;;;;7.37;4.00;;;;;;;7.08;100.00;100894.22;2080083;28;20181;-70
2023/12/21 04:37:04;;;;;;;7.07;3.53;;;;;;;7.00;100.00;100873.44;2079342;28;20205;-71
2023/12/21 04:38:04;;;;;;;7.87;4.10;;;;;;;6.53;100.00;100820.94;2077765;28;20957;-70
2023/12/21 04:39:05;;;;;;;6.70;3.60;;;;;;;6.70;100.00;100848.38;2078747;28;20539;-71
2023/12/21 04:40:07;;;;;;;6.33;3.17;;;;;;;7.00;100.00;100886.41;2087711;28;20702;-70
2023/12/21 04:41:07;;;;;;;5.45;3.08;;;;;;;6.75;100.00;100853.47;2086595;28;20633;-70